St M-d-napiervil

CMSX · Quebec, 加拿大

METAR的历史 CMSX · St M-d-napiervil

下面你可以看到过去几天的METARs。 选择年份以浏览从2007年开始的旧METAR。

2024年7月22日

时间 代码 天气 温度 能见度 天花板 METAR/SPECI
12:00
V
24 °C 30 mi - 210° 210° 7 kt METAR CYUL 221600Z 21007KT 190V260 30SM FEW050 FEW070 FEW220 FEW250 24/13 A3004 RMK CF1AC1CC1CI1 CF TR AC TR CC TR SLP175 DENSITY ALT 1100FT
11:00
V
24 °C 30 mi - 240° 240° 6 kt METAR CYUL 221500Z 24006KT 200V260 30SM FEW250 24/11 A3005 RMK CI2 SLP177 DENSITY ALT 1000FT
10:00
V
22 °C 15 mi - 230° 230° 6 kt METAR CYUL 221400Z 23006KT 15SM FEW070 FEW250 22/15 A3005 RMK ACC1CI1 ACC TR CI TR SLP179 DENSITY ALT 900FT
09:00
V
21 °C 30 mi - 240° 240° 3 kt METAR CYUL 221300Z 24003KT 190V300 30SM FEW025 FEW070 FEW250 21/15 A3005 RMK CF1ACC1CI1 CF TR ACC TR CI TR SLP179 DENSITY ALT 800FT
08:00
V
19 °C 30 mi - 360° 360° 0 kt METAR CYUL 221200Z 00000KT 30SM FEW015 FEW060 FEW250 19/15 A3006 RMK CU1SC1CI1 CU TR SC TR CI TR SLP180 DENSITY ALT 500FT
07:00
V
17 °C 30 mi - 010° 010° 2 kt METAR CYUL 221100Z 01002KT 30SM FEW015 FEW050 FEW250 17/13 A3006 RMK CU1SC1CI1 CU TR SC TR CI TR SLP181
06:00
V
16 °C 30 mi - 360° 360° 3 kt METAR CYUL 221000Z 36003KT 30SM FEW050 FEW250 16/13 A3005 RMK SC1CI1 SC TR CI TR SLP179
05:00
V
16 °C 15 mi - 360° 360° 0 kt METAR CYUL 220900Z 00000KT 15SM FEW250 16/13 A3005 RMK CI1 CI TR SLP177
04:00
V
17 °C 15 mi - 270° 270° 3 kt METAR CYUL 220800Z 27003KT 260V340 15SM SKC 17/13 A3005 RMK SLP176
03:00
V
17 °C 15 mi - 240° 240° 2 kt METAR CYUL 220700Z 24002KT 15SM SKC 17/12 A3005 RMK SLP179
02:00
V
16 °C 15 mi - 220° 220° 3 kt METAR CYUL 220600Z 22003KT 15SM SKC 16/12 A3006 RMK SLP180
01:00
V
18 °C 15 mi - Var Var 2 kt METAR CYUL 220500Z VRB02KT 15SM SKC 18/12 A3006 RMK SLP180
00:00
V
18 °C 15 mi - 360° 360° 0 kt METAR CYUL 220400Z 00000KT 15SM SKC 18/12 A3005 RMK SLP179 DENSITY ALT 400FT

2024年7月21日

时间 代码 天气 温度 能见度 天花板 METAR/SPECI
23:00
V
21 °C 15 mi - Var Var 2 kt METAR CYUL 220300Z VRB02KT 15SM SKC 21/11 A3005 RMK SLP177 DENSITY ALT 700FT
22:00
V
21 °C 15 mi - 340° 340° 4 kt METAR CYUL 220200Z 34004KT 15SM FEW250 21/11 A3005 RMK CI1 CI TR SLP178 DENSITY ALT 800FT
21:00
V
22 °C 15 mi - 330° 330° 5 kt METAR CYUL 220100Z 33005KT 15SM FEW060 FEW250 22/11 A3004 RMK CF1CI1 CF TR SLP175 DENSITY ALT 900FT
20:00
V
23 °C 30 mi - 290° 290° 7 kt METAR CYUL 220000Z 29007KT 270V330 30SM FEW060 FEW250 23/11 A3003 RMK CF1CI1 CI TR SLP170 DENSITY ALT 1000FT
19:00
V
24 °C 30 mi - 270° 270° 12 kt METAR CYUL 212300Z 27012KT 30SM FEW060 FEW250 24/10 A3002 RMK CU1CI1 CI TR SLP167 DENSITY ALT 1100FT
18:00
V
25 °C 30 mi - 310° 310° 7 - 15 kt METAR CYUL 212200Z 31007G15KT 270V340 30SM FEW060 FEW250 25/10 A3001 RMK CU1CI1 SLP165 DENSITY ALT 1200FT
17:00
V
25 °C 30 mi - 300° 300° 10 kt METAR CYUL 212100Z 30010KT 30SM FEW060 FEW250 25/11 A3002 RMK CU2CI1 CI TR SLP167 DENSITY ALT 1200FT
16:00
V
24 °C 15 mi - 320° 320° 10 - 16 kt METAR CYUL 212000Z 32010G16KT 260V340 15SM FEW050 FEW055 FEW250 24/10 A3002 RMK CF1CU2CI1 CF TR CI TR SLP169 DENSITY ALT 1200FT
15:00
V
24 °C 30 mi - 270° 270° 10 - 18 kt METAR CYUL 211900Z 27010G18KT 30SM FEW045 SCT055 SCT250 24/10 A3004 RMK CU1SC2CI1 CI TR SLP174 DENSITY ALT 1100FT
14:00
V
23 °C 15 mi - 300° 300° 6 kt METAR CYUL 211800Z 30006KT 250V320 15SM FEW050 SCT250 23/11 A3003 RMK CU2CI1 SLP172 DENSITY ALT 1000FT
13:00
V
22 °C 30 mi - 230° 230° 8 kt METAR CYUL 211700Z 23008KT 200V260 30SM FEW045 FEW060 FEW250 22/11 A3005 RMK CU1SC1CI1 CU TR SLP177 DENSITY ALT 900FT
12:00
V
21 °C 15 mi - 010° 010° 5 kt METAR CYUL 211600Z 01005KT 330V050 15SM FEW055 FEW080 SCT250 21/10 A3005 RMK SC2ACC1CI1 ACC TR SLP179 DENSITY ALT 800FT
11:00
V
21 °C 30 mi - Var Var 4 kt METAR CYUL 211500Z CCA VRB04KT 30SM FEW050 FEW065 FEW080 SCT250 21/11 A3007 RMK CF1CU1AC1CI1 CF TR SLP184 DENSITY ALT 700FT
10:00
V
20 °C 30 mi - 360° 360° 0 kt METAR CYUL 211400Z 00000KT 30SM FEW040 FEW080 FEW250 20/11 A3007 RMK CU1AC1CI1 CU TR AC TR SLP183 DENSITY ALT 600FT
09:00
V
19 °C 30 mi - 090° 090° 3 kt METAR CYUL 211300Z 09003KT 300V100 30SM FEW030 FEW070 FEW250 19/10 A3007 RMK CU1AC1CI1 CU TR AC TR CI TR SLP184 DENSITY ALT 500FT
08:00
V
18 °C 30 mi - 050° 050° 6 kt METAR CYUL 211200Z 05006KT 30SM FEW020 FEW065 FEW250 18/12 A3006 RMK CU1SC1CI1 CU TR SC TR SLP183
07:00
V
17 °C 30 mi - 040° 040° 6 kt METAR CYUL 211100Z 04006KT 30SM FEW060 FEW250 17/13 A3006 RMK SC1CI1 SC TR SLP181
06:00
V
15 °C 15 mi - 040° 040° 4 kt METAR CYUL 211000Z 04004KT 15SM FEW060 SCT250 15/13 A3005 RMK SC1CI2 SC TR SLP177
05:00
V
16 °C 15 mi - 030° 030° 5 kt METAR CYUL 210900Z 03005KT 15SM FEW012 FEW060 FEW250 16/13 A3003 RMK SC1SC1CI1 SC TR CI TR SLP172
04:00
V
17 °C 15 mi - 040° 040° 5 kt METAR CYUL 210800Z 04005KT 15SM FEW060 17/14 A3002 RMK SC1 SC TR SLP168
03:00
V
17 °C 15 mi - 050° 050° 6 kt METAR CYUL 210700Z 05006KT 15SM FEW060 17/15 A3002 RMK SC1 SLP166
02:00
V
20 °C 15 mi 6.000 ft 030° 030° 4 kt METAR CYUL 210600Z 03004KT 15SM SCT012 BKN060 20/18 A3001 RMK CF3SC3 SLP164 DENSITY ALT 600FT
01:00
M
20 °C 15 mi 2.200 ft 360° 360° 3 kt METAR CYUL 210500Z 36003KT 15SM FEW010 BKN022 OVC035 20/18 A3001 RMK CU2SC5SC1 SLP164 DENSITY ALT 600FT
00:14
V
20 °C 6 mi 6.200 ft Var Var 2 kt METAR CYUL 210414Z VRB02KT 6SM -RA BR FEW010 OVC062 20/18 A3000 RMK SF1SC7 SLP162 DENSITY ALT 600FT
00:00
M
20 °C 4 mi 6.000 ft 350° 350° 4 kt METAR CYUL 210400Z 35004KT 4SM RA BR FEW010 OVC060 20/18 A3000 RMK SF1SC7 SLP162 DENSITY ALT 600FT

2024年7月20日

时间 代码 天气 温度 能见度 天花板 METAR/SPECI
23:48
I
20 °C 3 mi 5.800 ft 350° 350° 7 kt METAR CYUL 210348Z 35007KT 3SM RA BR OVC058 20/18 A3001 RMK SC8 SLP163 DENSITY ALT 700FT
23:00
V
21 °C 15 mi 5.800 ft 310° 310° 5 kt METAR CYUL 210300Z 31005KT 15SM -RA OVC058 21/18 A2999 RMK SC8 SLP158 DENSITY ALT 800FT
22:00
V
21 °C 15 mi 5.800 ft 280° 280° 7 kt METAR CYUL 210200Z 28007KT 220V310 15SM FEW008 OVC058 21/19 A2999 RMK SF1SC8 SF TR SLP158 DENSITY ALT 800FT
21:00
V
21 °C 15 mi 11.000 ft 230° 230° 5 kt METAR CYUL 210100Z 23005KT 15SM FEW065 SCT085 BKN110 BKN250 21/18 A2997 RMK SC1AC2AC3CI1 SLP150 DENSITY ALT 800FT
20:00
V
21 °C 15 mi 10.000 ft 350° 350° 5 kt METAR CYUL 210000Z 35005KT 15SM SCT055 BKN100 BKN250 21/18 A2995 RMK SC3AC3CI1 SLP145 DENSITY ALT 800FT
19:42
V
21 °C 15 mi 10.000 ft 340° 340° 5 kt METAR CYUL 202342Z 34005KT 15SM SCT060 BKN100 BKN250 21/19 A2995 RMK SC3AC3CI1 SLP145 DENSITY ALT 800FT
19:11
V
21 °C 12 mi 6.500 ft 350° 350° 11 - 17 kt METAR CYUL 202311Z 35011G17KT 12SM -SHRA FEW050 BKN065 BKN080 BKN250 21/18 A2995 RMK CU1SC5AC1CI1 CI TR SLP145 DENSITY ALT 800FT
19:00
V
21 °C 15 mi 6.000 ft 340° 340° 13 - 25 kt METAR CYUL 202300Z 34013G25KT 300V010 15SM -SHRA FEW045 BKN060 BKN080 21/18 A2995 RMK CU1SC5AC1 PRESRR SLP145 DENSITY ALT 900FT
18:54
V
22 °C 12 mi 5.000 ft 320° 320° 17 - 25 kt METAR CYUL 202254Z 32017G25KT 260V350 12SM -SHRA FEW040 BKN050 BKN070 22/17 A2995 RMK CU1SC5AC1 PRESRR SLP145 DENSITY ALT 1000FT
18:00
V
27 °C 30 mi 14.000 ft 240° 240° 16 kt METAR CYUL 202200Z 24016KT 30SM FEW055 SCT085 BKN140 BKN250 27/15 A2992 RMK CF1AC2AC2CI1 SLP133 DENSITY ALT 1600FT
17:00
V
27 °C 30 mi - 230° 230° 17 - 24 kt METAR CYUL 202100Z 23017G24KT 30SM FEW045 FEW050 SCT250 27/15 A2992 RMK CF1CU1CI2 CF TR SLP135 DENSITY ALT 1600FT
16:00
V
27 °C 30 mi - 220° 220° 17 kt METAR CYUL 202000Z 22017KT 30SM FEW045 FEW050 SCT250 27/16 A2993 RMK CF1CU2CI1 CF TR SLP138 DENSITY ALT 1600FT
15:00
V
27 °C 30 mi - 230° 230° 18 - 23 kt METAR CYUL 201900Z 23018G23KT 30SM SCT055 SCT250 27/15 A2995 RMK SC3CI1 SLP143 DENSITY ALT 1500FT
14:00
V
27 °C 15 mi - 240° 240° 16 kt METAR CYUL 201800Z 24016KT 15SM FEW045 SCT055 SCT250 27/16 A2996 RMK CF1SC2CI1 SLP146 DENSITY ALT 1500FT
13:00
V
26 °C 30 mi - 230° 230° 18 - 23 kt METAR CYUL 201700Z 23018G23KT 30SM FEW035 FEW040 SCT250 26/16 A2997 RMK CF1SC2CI1 CF TR SLP150 DENSITY ALT 1400FT
12:00
V
25 °C 30 mi - 220° 220° 16 - 21 kt METAR CYUL 201600Z 22016G21KT 30SM FEW035 FEW040 FEW250 25/16 A2997 RMK CF1CU1CI1 CF TR SLP152 DENSITY ALT 1300FT
11:00
V
24 °C 15 mi - 240° 240° 13 - 19 kt METAR CYUL 201500Z 24013G19KT 15SM FEW040 FEW250 24/16 A2999 RMK CU1CI1 CI TR SLP157 DENSITY ALT 1200FT
10:00
V
23 °C 30 mi - 230° 230° 12 kt METAR CYUL 201400Z 23012KT 30SM FEW040 FEW080 FEW250 23/16 A3001 RMK CU1AC1CI1 AC TR CI TR SLP163 DENSITY ALT 1000FT
09:00
V
22 °C 30 mi - 240° 240° 11 - 16 kt METAR CYUL 201300Z 24011G16KT 30SM FEW030 FEW070 FEW250 22/14 A3002 RMK CU1AC1CI1 CU TR AC TR CI TR SLP169 DENSITY ALT 900FT
08:00
V
20 °C 30 mi - 240° 240° 8 - 16 kt METAR CYUL 201200Z 24008G16KT 30SM FEW060 FEW250 20/16 A3002 RMK CF1CI1 CF TR CI TR SLP169 DENSITY ALT 700FT
07:00
V
19 °C 30 mi - 250° 250° 9 kt METAR CYUL 201100Z 25009KT 30SM FEW060 FEW250 19/15 A3001 RMK CU1CI1 CU TR CI TR CC ASOCTD SLP165 DENSITY ALT 500FT
06:00
V
17 °C 30 mi - 250° 250° 6 kt METAR CYUL 201000Z 25006KT 30SM FEW055 FEW250 17/14 A3002 RMK CF1CI1 SLP166
05:00
V
18 °C 15 mi - 250° 250° 8 kt METAR CYUL 200900Z 25008KT 15SM FEW250 18/14 A3001 RMK CI1 CI TR SLP165 DENSITY ALT 400FT
04:00
V
19 °C 15 mi - 240° 240° 10 kt METAR CYUL 200800Z 24010KT 15SM SKC 19/14 A3002 RMK SLP166 DENSITY ALT 500FT
03:00
V
19 °C 15 mi - 240° 240° 9 kt METAR CYUL 200700Z 24009KT 15SM FEW067 19/14 A3003 RMK AC1 AC TR SLP171 DENSITY ALT 500FT
02:00
V
20 °C 15 mi 6.700 ft 250° 250° 9 kt METAR CYUL 200600Z 25009KT 15SM BKN067 20/14 A3005 RMK AC6 SLP176 DENSITY ALT 600FT
报告变更